ADDS METAR Data INFO
IDs: Format: Raw Decoded Include TAF

Data at: 0101 UTC 24 Aug 2017

KLEB 240053Z VRB03KT 10SM CLR 16/14 A2982 RMK AO2 SLP091 T01560139
KLEB 232353Z 17004KT 10SM SCT070 BKN085 19/16 A2980 RMK AO2 SLP083 T01890156 10256 20189 53008
KLEB 232253Z 17003KT 10SM BKN060 OVC080 22/15 A2979 RMK AO2 SLP078 T02170150
KLEB 232153Z 27004KT 10SM BKN080 24/11 A2978 RMK AO2 SLP075 T02390106
KLEB 232053Z 27007KT 10SM SCT065 SCT075 26/10 A2978 RMK AO2 SLP072 T02560100 58002
KLEB 231953Z 23006KT 10SM BKN065 24/10 A2978 RMK AO2 SLP072 T02440100
KLEB 231853Z 30010KT 10SM BKN060 24/10 A2979 RMK AO2 SLP075 T02440100
KLEB 231753Z 24008KT 220V280 10SM BKN055 23/10 A2978 RMK AO2 SLP075 T02330100 10244 20206 53001
KLEB 231653Z 27011KT 10SM FEW050 24/11 A2978 RMK AO2 SLP073 T02440106
KLEB 231553Z 27010KT 10SM SCT049 23/10 A2978 RMK AO2 SLP073 T02280100
KLEB 231453Z 26007G16KT 10SM FEW035 22/11 A2978 RMK AO2 SLP074 T02170106 51012
KLEB 231353Z 00000KT 10SM FEW035 21/12 A2977 RMK AO2 SLP072 T02110117
KLEB 231253Z 29005KT 10SM FEW035 21/11 A2976 RMK AO2 SLP066 T02060111
KLEB 231153Z 23008KT 10SM FEW030 SCT037 21/14 A2975 RMK AO2 SLP061 70046 T02110144 10217 20206 53021
KLEB 231053Z 19009KT 10SM BKN037 BKN090 21/17 A2970 RMK AO2 SLP045 T02110172
KLEB 230953Z 19010KT 10SM FEW025 SCT033 BKN041 21/18 A2968 RMK AO2 SLP038 T02060183
KLEB 230951Z 19008KT 10SM SCT025 SCT033 BKN043 21/18 A2968 RMK AO2
KLEB 230911Z AUTO 19008KT 10SM SCT022 BKN029 OVC095 21/19 A2966 RMK AO2 T02110189
KLEB 230853Z AUTO 17006KT 10SM FEW024 BKN031 OVC095 21/19 A2966 RMK AO2 SLP030 T02110189 58002
KLEB 230823Z AUTO 18010KT 10SM BKN029 OVC035 22/19 A2966 RMK AO2 T02170189
KLEB 230753Z AUTO 19007KT 10SM FEW028 BKN034 OVC060 21/19 A2966 RMK AO2 SLP032 T02110189
KLEB 230739Z AUTO 19007KT 10SM SCT028 BKN036 OVC055 21/19 A2966 RMK AO2 T02110189
KLEB 230653Z AUTO 16007KT 10SM BKN026 BKN033 21/19 A2966 RMK AO2 SLP033 T02110189
KLEB 230650Z AUTO 15006KT 10SM BKN026 21/19 A2966 RMK AO2
KLEB 230553Z AUTO 18009KT 10SM BKN100 21/19 A2966 RMK AO2 SLP030 60046 T02110194 10278 20211 50000
KLEB 230453Z AUTO 19012KT 10SM FEW060 BKN080 22/20 A2966 RMK AO2 SLP030 T02220200 403170144
KLEB 230353Z AUTO 17011KT 10SM BKN070 BKN080 22/20 A2966 RMK AO2 SLP031 T02220200
KLEB 230253Z AUTO 18009KT 10SM SCT070 22/21 A2966 RMK AO2 RAE07 SLP031 P0000 60046 T02220211 50001
KLEB 230223Z AUTO 18008KT 10SM FEW090 22/21 A2965 RMK AO2 LTG DSNT E-S RAE07 P0000 T02220211
KLEB 230208Z AUTO 19010KT 10SM VCTS FEW027 FEW095 SCT110 23/21 A2966 RMK AO2 LTG DSNT NE-S RAE07 P0000 T02280211
KLEB 230200Z AUTO 18007KT 6SM -RA BR SCT021 BKN095 BKN110 23/21 A2965 RMK AO2 LTG DSNT NE-S P0000 T02280211
KLEB 230153Z 17008KT 1 3/4SM VCTS -RA BR FEW015 BKN027 OVC120 23/22 A2966 RMK AO2 LTG DSNT E-S PRESFR SLP033 P0045 T02280217
KLEB 230131Z 31008KT 1 3/4SM VCTS +RA BR BKN023 BKN043 OVC085 23/22 A2968 RMK AO2 LTG DSNT SW P0029 T02330222
KLEB 230121Z 30004KT 1 3/4SM RA BR SCT036 BKN070 OVC110 24/23 A2968 RMK AO2 VIS 3/4V4 LTG DSNT SW P0008 T02440228
KLEB 230053Z 22011G21KT 4SM -RA BKN075 OVC100 27/21 A2967 RMK AO2 LTG DSNT SW RAE10B44 PRESRR SLP035 P0001 T02670211
KLEB 222353Z 18008KT 10SM -RA FEW095 27/21 A2965 RMK AO2 LTG DSNT N RAB14 SLP031 P0000 60000 T02720211 10317 20272 56021
KLEB 222253Z 19008KT 9SM CLR 28/22 A2967 RMK AO2 LTG DSNT NW SLP036 T02830217
KLEB 222153Z 19015G21KT 9SM CLR 29/22 A2969 RMK AO2 SLP045 T02940222
KLEB 222053Z 19011G21KT 9SM CLR 31/22 A2972 RMK AO2 SLP052 T03060222 56034
KLEB 221953Z 20013G22KT 10SM CLR 31/22 A2973 RMK AO2 SLP056 T03110217
KLEB 221853Z 20012G18KT 170V230 10SM CLR 31/22 A2977 RMK AO2 SLP069 T03110217
KLEB 221753Z 19012KT 10SM CLR 31/20 A2982 RMK AO2 SLP086 T03060200 10311 20167 58033
KLEB 221653Z 19010KT 10SM FEW031 30/21 A2985 RMK AO2 SLP099 T03000206
KLEB 221553Z 19011KT 10SM CLR 29/21 A2988 RMK AO2 SLP109 T02890206
KLEB 221453Z 23008KT 9SM CLR 27/21 A2991 RMK AO2 SLP119 T02670206 58026
KLEB 221353Z 26005KT 7SM CLR 23/19 A2995 RMK AO2 SLP133 T02330194
KLEB 221307Z 00000KT 6SM HZ SCT004 21/18 A2996 RMK AO2 T02060178